Latest Weather Observations for Batchelor

IDD60901

Issued at 6:01 pm CST Saturday 31 January 2015 (issued every 10 minutes, with the page automatically refreshed every 10 minutes)

About weather observations | Map of Darwin area stations | Latest observations for Darwin area | Other Formats
Station Details ID: 014272 Name: BATCHELOR AIRPORT Lat: -13.05 Lon: 131.03 Height: 104.0 m
Data from the previous 72 hours. | See also: Recent months at Batchelor
Date/Time
CST
Tmp

°C
App
Tmp
°C
Dew
Point
°C
Rel
Hum
%
Delta-T

°C
Wind Press
QNH
hPa
Press
MSL
hPa
Rain
since
9 am
mm
Dir
 
Spd
km/h
Gust
km/h
Spd
kts
Gust
kts
31/06:00pm 29.0 33.7 23.9 74 3.5 W 6 7 3 4 1006.1 1005.3 0.0
31/05:30pm 29.4 33.8 23.4 70 4.1 W 6 9 3 5 1006.3 1005.5 0.0
31/05:00pm 29.6 33.6 23.8 71 4.0 W 9 17 5 9 1006.1 1005.3 0.0
31/04:30pm 28.3 32.3 23.7 76 3.2 W 9 15 5 8 1006.3 1005.5 0.0
31/04:00pm 29.0 30.9 22.0 66 4.7 W 15 26 8 14 1006.0 1005.2 0.0
31/03:30pm 32.2 35.8 23.7 61 5.9 W 11 19 6 10 1005.9 1005.1 0.0
31/03:00pm 31.2 33.8 21.9 57 6.3 W 11 19 6 10 1006.5 1005.7 0.0
31/02:30pm 30.8 33.4 21.9 59 6.1 WSW 11 17 6 9 1006.6 1005.8 0.0
31/02:00pm 30.5 33.6 22.9 64 5.2 WSW 11 19 6 10 1007.0 1006.2 0.0
31/01:30pm 30.9 32.6 23.0 62 5.5 W 19 37 10 20 1007.5 1006.8 0.0
31/01:00pm 31.5 33.8 22.8 60 6.0 W 15 24 8 13 1007.9 1007.2 0.0
31/12:30pm 31.2 34.4 23.0 61 5.7 WNW 11 24 6 13 1008.4 1007.7 0.0
31/12:00pm 31.4 35.2 24.0 65 5.2 WSW 11 20 6 11 1008.7 1008.0 0.0
31/11:30am 30.4 32.9 23.1 65 5.0 W 15 22 8 12 1009.0 1008.3 0.0
31/11:00am 30.6 33.6 23.3 65 5.0 W 13 20 7 11 1009.3 1008.6 0.0
31/10:30am 29.6 32.7 23.5 69 4.2 WNW 13 20 7 11 1009.4 1008.7 0.0
31/10:00am 29.6 32.7 24.2 73 3.8 WNW 15 24 8 13 1009.5 1008.8 0.0
31/09:30am 28.5 31.7 24.3 78 2.9 WNW 15 22 8 12 1009.6 1008.9 0.0
31/09:00am 27.9 32.1 24.1 80 2.6 WNW 9 15 5 8 1009.4 1008.7 0.0
31/08:30am 27.0 31.2 24.1 84 2.0 NW 9 15 5 8 1009.2 1008.5 0.0
31/08:00am 25.7 30.2 23.9 90 1.2 WNW 7 11 4 6 1008.9 1008.2 0.0
31/07:30am 24.6 28.9 23.7 95 0.6 NW 7 9 4 5 1008.6 1007.9 0.0
31/07:00am 24.1 29.6 23.4 96 0.5 CALM 0 0 0 0 1008.4 1007.7 0.0
31/06:30am 24.1 29.5 23.2 95 0.6 CALM 0 0 0 0 1008.2 1007.5 0.0
31/06:00am 24.1 29.5 23.2 95 0.6 CALM 0 4 0 2 1008.0 1007.3 0.0
31/05:30am 24.3 29.8 23.4 95 0.6 CALM 0 0 0 0 1007.8 1007.1 0.0
31/05:00am 24.4 29.9 23.4 94 0.7 CALM 0 0 0 0 1007.6 1006.9 0.0
31/04:30am 24.4 29.2 23.5 95 0.6 ENE 4 4 2 2 1007.4 1006.7 0.0
31/04:00am 24.3 29.4 23.3 94 0.7 ENE 2 6 1 3 1007.3 1006.6 0.0
31/03:30am 24.5 30.1 23.5 94 0.7 CALM 0 0 0 0 1007.4 1006.7 0.0
31/03:00am 24.6 30.1 23.4 93 0.8 CALM 0 0 0 0 1007.9 1007.2 0.0
31/02:30am 24.7 30.3 23.5 93 0.8 CALM 0 0 0 0 1008.3 1007.6 0.0
31/02:00am 24.8 30.4 23.6 93 0.8 CALM 0 0 0 0 1008.8 1008.1 0.0
31/01:30am 24.9 30.2 23.7 93 0.8 ESE 2 4 1 2 1009.1 1008.4 0.0
31/01:00am 24.8 29.5 23.4 92 1.0 ESE 4 6 2 3 1009.1 1008.4 0.0
31/12:30am 24.6 29.1 23.0 91 1.1 SE 4 6 2 3 1009.4 1008.7 0.0
31/12:00am 24.6 29.3 23.4 93 0.8 W 4 6 2 3 1009.8 1009.1 0.0
 
Date/Time
CST
Tmp

°C
App
Tmp
°C
Dew
Point
°C
Rel
Hum
%
Delta-T

°C
Wind Press
QNH
hPa
Press
MSL
hPa
Rain
since
9 am
mm
Dir
 
Spd
km/h
Gust
km/h
Spd
kts
Gust
kts
30/11:30pm 24.7 29.6 23.1 91 1.1 W 2 4 1 2 1010.2 1009.5 0.0
30/11:00pm 24.8 30.0 22.9 89 1.3 CALM 0 0 0 0 1010.4 1009.7 0.0
30/10:30pm 25.1 30.5 23.3 90 1.2 CALM 0 0 0 0 1010.3 1009.6 0.0
30/10:00pm 25.0 30.1 22.7 87 1.6 CALM 0 0 0 0 1009.9 1009.2 0.0
30/09:30pm 25.3 30.7 23.2 88 1.4 CALM 0 0 0 0 1009.6 1008.9 0.0
30/09:00pm 25.4 29.8 23.5 89 1.3 NW 6 11 3 6 1009.1 1008.4 0.0
30/08:30pm 25.7 30.4 23.4 87 1.6 W 4 7 2 4 1008.7 1008.0 0.0
30/08:00pm 25.7 29.8 23.2 86 1.7 WNW 7 9 4 5 1008.8 1008.1 0.0
30/07:30pm 25.9 29.8 23.0 84 2.0 WNW 7 9 4 5 1008.5 1007.8 0.0
30/07:00pm 26.4 30.5 22.9 81 2.4 W 6 13 3 7 1007.9 1007.2 0.0
30/06:30pm 26.8 29.7 22.4 77 3.0 WNW 11 17 6 9 1007.4 1006.7 0.0
30/06:00pm 27.4 31.2 23.4 79 2.8 WNW 9 17 5 9 1006.9 1006.1 0.0
30/05:30pm 28.4 32.1 23.3 74 3.5 WNW 9 19 5 10 1006.8 1006.0 0.0
30/05:00pm 28.7 32.1 23.4 73 3.7 WNW 11 20 6 11 1006.4 1005.6 0.0
30/04:30pm 28.7 32.1 22.7 70 4.1 WNW 9 13 5 7 1005.8 1005.0 0.0
30/04:00pm 28.9 32.4 22.9 70 4.1 WNW 9 15 5 8 1006.1 1005.3 0.0
30/03:30pm 28.9 32.6 22.6 69 4.3 NW 7 13 4 7 1006.2 1005.4 0.0
30/03:00pm 27.1 30.4 22.5 76 3.1 NNW 9 19 5 10 1006.4 1005.6 0.0
30/02:30pm 25.9 27.7 21.8 78 2.7 NNW 15 28 8 15 1007.3 1006.6 0.0
30/02:00pm 26.9 29.1 21.9 74 3.4 NW 13 20 7 11 1007.9 1007.2 0.0
30/01:30pm 28.6 31.3 22.8 71 4.0 W 13 20 7 11 1007.7 1007.0 0.0
30/01:00pm 29.2 33.1 23.6 72 3.9 WNW 9 15 5 8 1008.1 1007.4 0.0
30/12:30pm 29.0 30.9 22.7 69 4.3 WNW 17 26 9 14 1008.6 1007.9 0.0
30/12:00pm 30.3 33.2 22.5 63 5.3 WNW 11 20 6 11 1008.7 1008.0 0.0
30/11:30am 30.4 34.0 23.8 68 4.6 WNW 11 17 6 9 1008.9 1008.2 0.0
30/11:00am 30.7 34.9 24.1 68 4.6 NW 9 15 5 8 1009.0 1008.3 0.0
30/10:30am 29.5 33.7 24.1 72 3.8 WNW 9 17 5 9 1009.1 1008.4 0.0
30/10:00am 29.0 33.5 24.6 77 3.1 WNW 9 15 5 8 1009.3 1008.6 0.0
30/09:30am 28.0 32.6 23.8 78 2.9 W 6 9 3 5 1009.1 1008.4 0.0
30/09:00am 27.5 32.3 23.5 79 2.8 WNW 4 6 2 3 1009.0 1008.3 7.8
30/08:30am 26.9 31.9 23.8 83 2.1 WSW 4 4 2 2 1008.5 1007.8 7.6
30/08:00am 25.6 31.3 23.8 90 1.2 CALM 0 0 0 0 1008.2 1007.5 7.6
30/07:30am 24.5 29.9 23.8 96 0.5 NE 2 4 1 2 1007.7 1007.0 7.6
30/07:00am 23.7 27.8 23.0 96 0.5 E 6 7 3 4 1006.9 1006.1 7.6
30/06:30am 23.3 27.9 22.5 95 0.5 WNW 2 4 1 2 1006.7 1005.9 7.6
30/06:00am 23.4 28.3 22.4 94 0.7 CALM 0 0 0 0 1006.7 1005.9 7.6
30/05:30am 23.6 28.7 22.6 94 0.7 CALM 0 4 0 2 1006.8 1006.0 7.6
30/05:00am 23.8 28.6 22.8 94 0.7 WNW 2 4 1 2 1006.9 1006.1 7.6
30/04:30am 23.9 29.0 22.7 93 0.8 CALM 0 0 0 0 1006.9 1006.1 7.6
30/04:00am 23.9 28.5 22.5 92 0.9 WNW 2 4 1 2 1006.9 1006.1 7.6
30/03:30am 24.0 28.3 22.6 92 0.9 WNW 4 4 2 2 1007.1 1006.4 7.6
30/03:00am 24.2 28.5 22.6 91 1.1 NW 4 6 2 3 1007.1 1006.4 7.6
30/02:30am 24.3 28.2 22.6 90 1.1 NW 6 9 3 5 1007.2 1006.5 7.6
30/02:00am 24.4 28.4 22.7 90 1.1 WNW 6 7 3 4 1007.5 1006.8 7.6
30/01:30am 24.4 28.7 22.7 90 1.1 WNW 4 6 2 3 1007.9 1007.2 7.6
30/01:00am 24.5 28.6 22.9 91 1.1 WNW 6 9 3 5 1008.0 1007.3 7.6
30/12:30am 24.4 28.8 22.8 91 1.1 W 4 6 2 3 1008.4 1007.7 7.6
30/12:00am 24.6 29.1 23.0 91 1.1 WNW 4 6 2 3 1008.6 1007.9 7.6
 
Date/Time
CST
Tmp

°C
App
Tmp
°C
Dew
Point
°C
Rel
Hum
%
Delta-T

°C
Wind Press
QNH
hPa
Press
MSL
hPa
Rain
since
9 am
mm
Dir
 
Spd
km/h
Gust
km/h
Spd
kts
Gust
kts
29/11:30pm 24.5 29.1 23.1 92 1.0 N 4 7 2 4 1008.8 1008.1 7.6
29/11:00pm 24.7 30.1 23.3 92 1.0 CALM 0 2 0 1 1009.0 1008.3 7.6
29/10:30pm 24.7 29.6 23.7 94 0.7 NW 4 6 2 3 1008.8 1008.1 7.6
29/10:00pm 24.7 29.1 23.5 93 0.8 WNW 6 9 3 5 1008.6 1007.9 7.6
29/09:30pm 24.6 29.2 23.2 92 1.0 NNW 4 6 2 3 1008.3 1007.6 7.6
29/09:00pm 24.4 28.5 23.0 92 1.0 NNE 6 7 3 4 1008.1 1007.4 7.6
29/08:30pm 23.9 28.0 22.2 90 1.1 NNE 4 6 2 3 1007.5 1006.8 7.4
29/08:00pm 23.7 26.2 21.8 89 1.3 NNE 11 17 6 9 1007.4 1006.7 7.4
29/07:30pm 23.9 26.3 21.6 87 1.5 E 11 17 6 9 1006.8 1006.0 6.8
29/07:00pm 24.1 25.8 21.6 86 1.7 E 15 22 8 12 1006.7 1005.9 5.2
29/06:30pm 25.0 29.9 23.1 89 1.3 WNW 2 2 1 1 1005.8 1005.0 3.6
29/06:00pm 24.7 27.7 22.0 85 1.8 W 9 15 5 8 1004.9 1004.1 3.4
29/05:30pm 24.9 27.1 22.6 87 1.6 W 15 24 8 13 1005.4 1004.6 2.4
29/05:00pm 27.0 29.5 22.4 76 3.1 WNW 13 26 7 14 1004.5 1003.7 0.0
29/04:30pm 31.5 35.3 21.7 56 6.7 SE 4 7 2 4 1003.9 1003.1 0.0
29/04:00pm 32.1 35.2 22.2 56 6.8 SE 9 13 5 7 1003.9 1003.1 0.0
29/03:30pm 32.8 35.8 21.3 50 7.8 SSE 7 11 4 6 1004.5 1003.7 0.0
29/03:00pm 32.1 35.7 21.3 53 7.3 NNE 4 6 2 3 1004.8 1004.0 0.0
29/02:30pm 33.1 37.0 22.5 53 7.3 WSW 6 9 3 5 1005.2 1004.4 0.0
29/02:00pm 32.0 35.9 21.8 54 6.9 SW 4 7 2 4 1005.4 1004.6 0.0
29/01:30pm 32.0 36.4 23.5 60 5.9 SW 6 9 3 5 1006.0 1005.2 0.0
29/01:00pm 30.8 34.3 21.9 59 6.0 WNW 6 9 3 5 1006.6 1005.8 0.0
29/12:30pm 31.2 34.7 21.9 57 6.3 WNW 6 11 3 6 1007.1 1006.4 0.0
29/12:00pm 30.7 33.8 21.5 58 6.2 WNW 7 13 4 7 1007.4 1006.7 0.0
29/11:30am 30.1 34.2 22.3 63 5.3 NW 4 9 2 5 1007.6 1006.9 0.0
29/11:00am 29.3 32.7 21.0 61 5.5 NW 4 6 2 3 1008.0 1007.3 0.0
29/10:30am 28.7 31.8 21.0 63 5.1 WSW 6 11 3 6 1008.2 1007.5 0.0
29/10:00am 28.0 30.7 20.3 63 5.1 WNW 6 9 3 5 1008.3 1007.6 0.0
29/09:30am 27.4 32.3 22.4 74 3.4 CALM 0 6 0 3 1008.1 1007.4 0.0
29/09:00am 26.1 30.9 22.8 82 2.2 WNW 2 6 1 3 1007.9 1007.2 1.0
29/08:30am 25.4 30.0 23.1 87 1.6 WSW 4 9 2 5 1007.5 1006.8 1.0
29/08:00am 24.3 28.6 22.7 91 1.1 SW 4 6 2 3 1007.4 1006.7 1.0
29/07:30am 23.7 28.7 22.5 93 0.8 CALM 0 0 0 0 1006.9 1006.1 1.0
29/07:00am 23.4 27.6 22.4 94 0.7 SW 4 6 2 3 1006.2 1005.4 1.0
29/06:30am 23.4 28.0 22.4 94 0.7 ESE 2 2 1 1 1006.1 1005.3 1.0
29/06:00am 23.4 27.5 22.2 93 0.8 E 4 6 2 3 1006.0 1005.2 1.0
29/05:30am 23.4 26.9 22.2 93 0.8 E 7 9 4 5 1006.2 1005.4 1.0
29/05:00am 23.6 28.2 22.4 93 0.8 ENE 2 9 1 5 1006.5 1005.7 1.0
29/04:30am 23.5 27.1 22.1 92 0.9 NE 6 6 3 3 1006.4 1005.6 1.0
29/04:00am 23.5 26.8 21.9 91 1.1 N 7 11 4 6 1006.1 1005.3 1.0
29/03:30am 23.5 26.8 21.8 90 1.1 NNW 7 13 4 7 1006.3 1005.5 1.0
29/03:00am 23.3 26.5 21.7 91 1.1 NNW 7 11 4 6 1006.6 1005.8 1.0
29/02:30am 23.3 27.2 21.9 92 0.9 ENE 4 6 2 3 1007.0 1006.2 1.0
29/02:00am 23.3 27.1 21.6 90 1.1 ENE 4 6 2 3 1007.2 1006.5 0.8
29/01:30am 23.5 27.4 21.8 90 1.1 ENE 4 4 2 2 1007.5 1006.8 0.8
29/01:00am 23.5 26.9 21.6 89 1.3 E 6 9 3 5 1007.7 1007.0 0.8
29/12:30am 23.9 27.7 21.6 87 1.5 N 4 6 2 3 1007.8 1007.1 0.8
29/12:00am 23.7 27.0 21.4 87 1.5 NNW 6 7 3 4 1008.0 1007.3 0.8
 
Date/Time
CST
Tmp

°C
App
Tmp
°C
Dew
Point
°C
Rel
Hum
%
Delta-T

°C
Wind Press
QNH
hPa
Press
MSL
hPa
Rain
since
9 am
mm
Dir
 
Spd
km/h
Gust
km/h
Spd
kts
Gust
kts
28/11:30pm 23.8 27.1 21.5 87 1.5 W 6 7 3 4 1007.9 1007.2 0.8
28/11:00pm 23.8 27.4 21.3 86 1.7 NW 4 6 2 3 1008.0 1007.3 0.8
28/10:30pm 23.9 26.9 20.8 83 2.0 NNW 6 11 3 6 1008.0 1007.3 0.8
28/10:00pm 24.0 25.6 20.7 82 2.2 NNW 13 19 7 10 1007.7 1007.0 0.8
28/09:30pm 24.2 27.3 21.5 85 1.8 N 7 11 4 6 1007.8 1007.1 0.8
28/09:00pm 24.4 28.8 22.1 87 1.5 N 2 6 1 3 1007.9 1007.2 0.8
28/08:30pm 25.4 29.2 21.7 80 2.5 NW 4 6 2 3 1007.3 1006.6 0.0
28/08:00pm 25.7 29.0 21.4 77 2.9 N 6 7 3 4 1006.7 1005.9 0.0
28/07:30pm 25.9 29.6 22.2 80 2.5 WNW 6 9 3 5 1005.5 1004.7 0.0
28/07:00pm 26.8 30.3 22.2 76 3.1 WNW 7 11 4 6 1004.8 1004.0 0.0
28/06:30pm 27.4 30.6 22.4 74 3.4 NW 9 19 5 10 1004.2 1003.4 0.0

Latest Capital City Observations: Canberra | Sydney | Melbourne | Brisbane | Adelaide | Perth | Hobart | Darwin

Other Formats:

Comma delimited format used in spreadsheet applications
http://www.bom.gov.au/fwo/IDD60901/IDD60901.94125.axf

JavaScript Object Notation format (JSON) in row-major order
http://www.bom.gov.au/fwo/IDD60901/IDD60901.94125.json